sensor_id;sensor_type;location;lat;lon;timestamp;P1;durP1;ratioP1;P2;durP2;ratioP2
17065;SDS011;23120;52.336;21.182;2023-05-02T00:00:55;0.20;;;0.20;;
17065;SDS011;23120;52.336;21.182;2023-05-02T00:03:23;0.20;;;0.20;;
17065;SDS011;23120;52.336;21.182;2023-05-02T00:05:50;0.20;;;0.20;;
17065;SDS011;23120;52.336;21.182;2023-05-02T00:08:18;0.20;;;0.20;;
17065;SDS011;23120;52.336;21.182;2023-05-02T00:10:45;0.20;;;0.20;;
17065;SDS011;23120;52.336;21.182;2023-05-02T00:13:12;0.20;;;0.20;;
17065;SDS011;23120;52.336;21.182;2023-05-02T00:15:38;0.20;;;0.20;;
17065;SDS011;23120;52.336;21.182;2023-05-02T00:18:05;0.20;;;0.20;;
17065;SDS011;23120;52.336;21.182;2023-05-02T00:20:32;0.20;;;0.20;;
17065;SDS011;23120;52.336;21.182;2023-05-02T00:22:59;0.20;;;0.20;;
17065;SDS011;23120;52.336;21.182;2023-05-02T00:25:27;0.20;;;0.20;;
17065;SDS011;23120;52.336;21.182;2023-05-02T00:27:54;0.20;;;0.20;;
17065;SDS011;23120;52.336;21.182;2023-05-02T00:30:20;0.20;;;0.20;;
17065;SDS011;23120;52.336;21.182;2023-05-02T00:32:47;0.20;;;0.20;;
17065;SDS011;23120;52.336;21.182;2023-05-02T00:35:14;0.20;;;0.20;;
17065;SDS011;23120;52.336;21.182;2023-05-02T00:37:41;0.20;;;0.20;;
17065;SDS011;23120;52.336;21.182;2023-05-02T00:40:08;0.30;;;0.30;;
17065;SDS011;23120;52.336;21.182;2023-05-02T00:42:37;0.20;;;0.20;;
17065;SDS011;23120;52.336;21.182;2023-05-02T00:45:04;0.20;;;0.20;;
17065;SDS011;23120;52.336;21.182;2023-05-02T00:47:32;0.20;;;0.20;;
17065;SDS011;23120;52.336;21.182;2023-05-02T00:49:58;0.20;;;0.20;;
17065;SDS011;23120;52.336;21.182;2023-05-02T00:52:26;0.20;;;0.20;;
17065;SDS011;23120;52.336;21.182;2023-05-02T00:54:53;0.20;;;0.20;;
17065;SDS011;23120;52.336;21.182;2023-05-02T00:57:20;0.20;;;0.20;;
17065;SDS011;23120;52.336;21.182;2023-05-02T00:59:49;0.20;;;0.20;;
17065;SDS011;23120;52.336;21.182;2023-05-02T01:02:21;0.20;;;0.20;;
17065;SDS011;23120;52.336;21.182;2023-05-02T01:04:59;0.20;;;0.20;;
17065;SDS011;23120;52.336;21.182;2023-05-02T01:07:34;0.20;;;0.20;;
17065;SDS011;23120;52.336;21.182;2023-05-02T01:10:18;0.20;;;0.20;;
17065;SDS011;23120;52.336;21.182;2023-05-02T01:12:53;0.20;;;0.20;;
17065;SDS011;23120;52.336;21.182;2023-05-02T01:15:26;0.20;;;0.20;;
17065;SDS011;23120;52.336;21.182;2023-05-02T01:17:53;0.20;;;0.20;;
17065;SDS011;23120;52.336;21.182;2023-05-02T01:20:22;0.20;;;0.20;;
17065;SDS011;23120;52.336;21.182;2023-05-02T01:22:53;0.20;;;0.20;;
17065;SDS011;23120;52.336;21.182;2023-05-02T01:25:25;0.20;;;0.20;;
17065;SDS011;23120;52.336;21.182;2023-05-02T01:28:00;0.20;;;0.20;;
17065;SDS011;23120;52.336;21.182;2023-05-02T01:30:37;0.20;;;0.20;;
17065;SDS011;23120;52.336;21.182;2023-05-02T01:33:08;0.20;;;0.20;;
17065;SDS011;23120;52.336;21.182;2023-05-02T01:35:36;0.20;;;0.20;;
17065;SDS011;23120;52.336;21.182;2023-05-02T01:38:04;0.20;;;0.20;;
17065;SDS011;23120;52.336;21.182;2023-05-02T01:40:31;0.20;;;0.20;;
17065;SDS011;23120;52.336;21.182;2023-05-02T01:43:00;0.20;;;0.20;;
17065;SDS011;23120;52.336;21.182;2023-05-02T01:45:30;0.20;;;0.20;;
17065;SDS011;23120;52.336;21.182;2023-05-02T01:48:01;0.20;;;0.20;;
17065;SDS011;23120;52.336;21.182;2023-05-02T01:50:31;0.20;;;0.20;;
17065;SDS011;23120;52.336;21.182;2023-05-02T01:52:58;0.20;;;0.20;;
17065;SDS011;23120;52.336;21.182;2023-05-02T01:55:28;0.20;;;0.20;;
17065;SDS011;23120;52.336;21.182;2023-05-02T01:57:56;0.20;;;0.20;;
17065;SDS011;23120;52.336;21.182;2023-05-02T02:00:23;0.20;;;0.20;;
17065;SDS011;23120;52.336;21.182;2023-05-02T02:02:51;0.20;;;0.20;;
17065;SDS011;23120;52.336;21.182;2023-05-02T02:05:22;0.20;;;0.20;;
17065;SDS011;23120;52.336;21.182;2023-05-02T02:07:50;0.20;;;0.20;;
17065;SDS011;23120;52.336;21.182;2023-05-02T02:10:17;0.20;;;0.20;;
17065;SDS011;23120;52.336;21.182;2023-05-02T02:12:48;0.20;;;0.20;;
17065;SDS011;23120;52.336;21.182;2023-05-02T02:15:19;0.20;;;0.20;;
17065;SDS011;23120;52.336;21.182;2023-05-02T02:17:53;0.20;;;0.20;;
17065;SDS011;23120;52.336;21.182;2023-05-02T02:20:26;0.20;;;0.20;;
17065;SDS011;23120;52.336;21.182;2023-05-02T02:22:56;0.20;;;0.20;;
17065;SDS011;23120;52.336;21.182;2023-05-02T02:25:24;0.20;;;0.20;;
17065;SDS011;23120;52.336;21.182;2023-05-02T02:27:52;0.20;;;0.20;;
17065;SDS011;23120;52.336;21.182;2023-05-02T02:30:19;0.20;;;0.20;;
17065;SDS011;23120;52.336;21.182;2023-05-02T02:32:46;0.20;;;0.20;;
17065;SDS011;23120;52.336;21.182;2023-05-02T02:35:13;0.20;;;0.20;;
17065;SDS011;23120;52.336;21.182;2023-05-02T02:37:43;0.20;;;0.20;;
17065;SDS011;23120;52.336;21.182;2023-05-02T02:40:16;0.20;;;0.20;;
17065;SDS011;23120;52.336;21.182;2023-05-02T02:42:49;0.20;;;0.20;;
17065;SDS011;23120;52.336;21.182;2023-05-02T02:45:26;0.30;;;0.30;;
17065;SDS011;23120;52.336;21.182;2023-05-02T02:48:01;0.20;;;0.20;;
17065;SDS011;23120;52.336;21.182;2023-05-02T02:50:35;0.20;;;0.20;;
17065;SDS011;23120;52.336;21.182;2023-05-02T02:53:11;0.20;;;0.20;;
17065;SDS011;23120;52.336;21.182;2023-05-02T02:55:44;0.20;;;0.20;;
17065;SDS011;23120;52.336;21.182;2023-05-02T02:58:19;0.20;;;0.20;;
17065;SDS011;23120;52.336;21.182;2023-05-02T03:00:53;0.20;;;0.20;;
17065;SDS011;23120;52.336;21.182;2023-05-02T03:03:21;0.20;;;0.20;;
17065;SDS011;23120;52.336;21.182;2023-05-02T03:05:53;0.20;;;0.20;;
17065;SDS011;23120;52.336;21.182;2023-05-02T03:08:22;0.20;;;0.20;;
17065;SDS011;23120;52.336;21.182;2023-05-02T03:10:50;0.20;;;0.20;;
17065;SDS011;23120;52.336;21.182;2023-05-02T03:13:17;0.20;;;0.20;;
17065;SDS011;23120;52.336;21.182;2023-05-02T03:16:00;0.20;;;0.20;;
17065;SDS011;23120;52.336;21.182;2023-05-02T03:18:55;0.20;;;0.20;;
17065;SDS011;23120;52.336;21.182;2023-05-02T03:21:22;0.20;;;0.20;;
17065;SDS011;23120;52.336;21.182;2023-05-02T03:23:50;0.20;;;0.20;;
17065;SDS011;23120;52.336;21.182;2023-05-02T03:26:17;0.20;;;0.20;;
17065;SDS011;23120;52.336;21.182;2023-05-02T03:28:44;0.20;;;0.20;;
17065;SDS011;23120;52.336;21.182;2023-05-02T03:31:16;0.20;;;0.20;;
17065;SDS011;23120;52.336;21.182;2023-05-02T03:33:43;0.20;;;0.20;;
17065;SDS011;23120;52.336;21.182;2023-05-02T03:36:10;0.20;;;0.20;;
17065;SDS011;23120;52.336;21.182;2023-05-02T03:38:38;0.20;;;0.20;;
17065;SDS011;23120;52.336;21.182;2023-05-02T03:41:10;0.20;;;0.20;;
17065;SDS011;23120;52.336;21.182;2023-05-02T03:43:37;0.20;;;0.20;;
17065;SDS011;23120;52.336;21.182;2023-05-02T03:46:04;0.20;;;0.20;;
17065;SDS011;23120;52.336;21.182;2023-05-02T03:48:33;0.20;;;0.20;;
17065;SDS011;23120;52.336;21.182;2023-05-02T03:51:01;0.20;;;0.20;;
17065;SDS011;23120;52.336;21.182;2023-05-02T03:53:37;0.20;;;0.20;;
17065;SDS011;23120;52.336;21.182;2023-05-02T03:56:05;0.20;;;0.20;;
17065;SDS011;23120;52.336;21.182;2023-05-02T03:58:43;0.20;;;0.20;;
17065;SDS011;23120;52.336;21.182;2023-05-02T04:01:14;0.20;;;0.20;;
17065;SDS011;23120;52.336;21.182;2023-05-02T04:03:44;0.20;;;0.20;;
17065;SDS011;23120;52.336;21.182;2023-05-02T04:06:13;0.20;;;0.20;;
17065;SDS011;23120;52.336;21.182;2023-05-02T04:08:42;0.20;;;0.20;;
17065;SDS011;23120;52.336;21.182;2023-05-02T04:11:09;0.20;;;0.20;;
17065;SDS011;23120;52.336;21.182;2023-05-02T04:13:36;0.20;;;0.20;;
17065;SDS011;23120;52.336;21.182;2023-05-02T04:16:05;0.20;;;0.20;;
17065;SDS011;23120;52.336;21.182;2023-05-02T04:18:34;0.20;;;0.20;;
17065;SDS011;23120;52.336;21.182;2023-05-02T04:21:03;0.20;;;0.20;;
17065;SDS011;23120;52.336;21.182;2023-05-02T04:23:29;0.20;;;0.20;;
17065;SDS011;23120;52.336;21.182;2023-05-02T04:25:59;0.20;;;0.20;;
17065;SDS011;23120;52.336;21.182;2023-05-02T04:28:33;0.20;;;0.20;;
17065;SDS011;23120;52.336;21.182;2023-05-02T04:31:01;0.20;;;0.20;;
17065;SDS011;23120;52.336;21.182;2023-05-02T04:33:29;0.20;;;0.20;;
17065;SDS011;23120;52.336;21.182;2023-05-02T04:35:57;0.20;;;0.20;;
17065;SDS011;23120;52.336;21.182;2023-05-02T04:38:25;0.20;;;0.20;;
17065;SDS011;23120;52.336;21.182;2023-05-02T04:40:52;0.27;;;0.27;;
17065;SDS011;23120;52.336;21.182;2023-05-02T04:43:26;0.20;;;0.20;;
17065;SDS011;23120;52.336;21.182;2023-05-02T04:45:57;0.20;;;0.20;;
17065;SDS011;23120;52.336;21.182;2023-05-02T04:48:30;0.20;;;0.20;;
17065;SDS011;23120;52.336;21.182;2023-05-02T04:50:57;0.20;;;0.20;;
17065;SDS011;23120;52.336;21.182;2023-05-02T04:53:25;0.20;;;0.20;;
17065;SDS011;23120;52.336;21.182;2023-05-02T04:55:52;0.20;;;0.20;;
17065;SDS011;23120;52.336;21.182;2023-05-02T04:58:19;0.20;;;0.20;;
17065;SDS011;23120;52.336;21.182;2023-05-02T05:00:52;0.20;;;0.20;;
17065;SDS011;23120;52.336;21.182;2023-05-02T05:03:19;0.20;;;0.20;;
17065;SDS011;23120;52.336;21.182;2023-05-02T05:05:48;0.20;;;0.20;;
17065;SDS011;23120;52.336;21.182;2023-05-02T05:08:16;0.20;;;0.20;;
17065;SDS011;23120;52.336;21.182;2023-05-02T05:10:44;0.20;;;0.20;;
17065;SDS011;23120;52.336;21.182;2023-05-02T05:13:11;0.20;;;0.20;;
17065;SDS011;23120;52.336;21.182;2023-05-02T05:15:39;0.30;;;0.30;;
17065;SDS011;23120;52.336;21.182;2023-05-02T05:18:07;0.20;;;0.20;;
17065;SDS011;23120;52.336;21.182;2023-05-02T05:20:34;0.20;;;0.20;;
17065;SDS011;23120;52.336;21.182;2023-05-02T05:23:03;0.20;;;0.20;;
17065;SDS011;23120;52.336;21.182;2023-05-02T05:25:31;0.20;;;0.20;;
17065;SDS011;23120;52.336;21.182;2023-05-02T05:27:58;0.20;;;0.20;;
17065;SDS011;23120;52.336;21.182;2023-05-02T05:30:25;0.20;;;0.20;;
17065;SDS011;23120;52.336;21.182;2023-05-02T05:32:56;0.20;;;0.20;;
17065;SDS011;23120;52.336;21.182;2023-05-02T05:35:23;0.20;;;0.20;;
17065;SDS011;23120;52.336;21.182;2023-05-02T05:37:50;0.20;;;0.20;;
17065;SDS011;23120;52.336;21.182;2023-05-02T05:40:20;0.20;;;0.20;;
17065;SDS011;23120;52.336;21.182;2023-05-02T05:42:53;0.20;;;0.20;;
17065;SDS011;23120;52.336;21.182;2023-05-02T05:45:25;0.20;;;0.20;;
17065;SDS011;23120;52.336;21.182;2023-05-02T05:47:52;0.20;;;0.20;;
17065;SDS011;23120;52.336;21.182;2023-05-02T05:50:19;0.20;;;0.20;;
17065;SDS011;23120;52.336;21.182;2023-05-02T05:52:46;0.20;;;0.20;;
17065;SDS011;23120;52.336;21.182;2023-05-02T05:55:13;0.20;;;0.20;;
17065;SDS011;23120;52.336;21.182;2023-05-02T05:57:42;0.20;;;0.20;;
17065;SDS011;23120;52.336;21.182;2023-05-02T06:00:09;0.20;;;0.20;;
17065;SDS011;23120;52.336;21.182;2023-05-02T06:02:49;0.20;;;0.20;;
17065;SDS011;23120;52.336;21.182;2023-05-02T06:05:23;0.20;;;0.20;;
17065;SDS011;23120;52.336;21.182;2023-05-02T06:07:50;0.20;;;0.20;;
17065;SDS011;23120;52.336;21.182;2023-05-02T06:10:17;0.10;;;0.10;;
17065;SDS011;23120;52.336;21.182;2023-05-02T06:12:46;0.20;;;0.20;;
17065;SDS011;23120;52.336;21.182;2023-05-02T06:15:14;0.20;;;0.20;;
17065;SDS011;23120;52.336;21.182;2023-05-02T06:17:41;0.20;;;0.20;;
17065;SDS011;23120;52.336;21.182;2023-05-02T06:20:08;0.20;;;0.20;;
17065;SDS011;23120;52.336;21.182;2023-05-02T06:22:35;0.20;;;0.20;;
17065;SDS011;23120;52.336;21.182;2023-05-02T06:25:04;0.20;;;0.20;;
17065;SDS011;23120;52.336;21.182;2023-05-02T06:27:31;0.20;;;0.20;;
17065;SDS011;23120;52.336;21.182;2023-05-02T06:29:59;0.20;;;0.20;;
17065;SDS011;23120;52.336;21.182;2023-05-02T06:32:28;0.20;;;0.20;;
17065;SDS011;23120;52.336;21.182;2023-05-02T06:34:55;0.20;;;0.20;;
17065;SDS011;23120;52.336;21.182;2023-05-02T06:37:25;0.20;;;0.20;;
17065;SDS011;23120;52.336;21.182;2023-05-02T06:39:52;0.20;;;0.20;;
17065;SDS011;23120;52.336;21.182;2023-05-02T06:42:18;0.20;;;0.20;;
17065;SDS011;23120;52.336;21.182;2023-05-02T06:44:45;0.20;;;0.20;;
17065;SDS011;23120;52.336;21.182;2023-05-02T06:47:13;0.20;;;0.20;;
17065;SDS011;23120;52.336;21.182;2023-05-02T06:49:42;0.20;;;0.20;;
17065;SDS011;23120;52.336;21.182;2023-05-02T06:52:09;0.20;;;0.20;;
17065;SDS011;23120;52.336;21.182;2023-05-02T06:54:36;0.20;;;0.20;;
17065;SDS011;23120;52.336;21.182;2023-05-02T06:57:06;0.20;;;0.20;;
17065;SDS011;23120;52.336;21.182;2023-05-02T06:59:33;0.20;;;0.20;;
17065;SDS011;23120;52.336;21.182;2023-05-02T07:02:07;0.20;;;0.20;;
17065;SDS011;23120;52.336;21.182;2023-05-02T07:04:35;0.20;;;0.20;;
17065;SDS011;23120;52.336;21.182;2023-05-02T07:07:02;0.20;;;0.20;;
17065;SDS011;23120;52.336;21.182;2023-05-02T07:09:29;0.10;;;0.10;;
17065;SDS011;23120;52.336;21.182;2023-05-02T07:11:56;0.20;;;0.20;;
17065;SDS011;23120;52.336;21.182;2023-05-02T07:14:22;0.10;;;0.10;;
17065;SDS011;23120;52.336;21.182;2023-05-02T07:16:49;0.10;;;0.10;;
17065;SDS011;23120;52.336;21.182;2023-05-02T07:19:17;0.20;;;0.20;;
17065;SDS011;23120;52.336;21.182;2023-05-02T07:21:45;0.20;;;0.20;;
17065;SDS011;23120;52.336;21.182;2023-05-02T07:24:12;0.20;;;0.20;;
17065;SDS011;23120;52.336;21.182;2023-05-02T07:26:39;0.20;;;0.20;;
17065;SDS011;23120;52.336;21.182;2023-05-02T07:29:06;0.20;;;0.20;;
17065;SDS011;23120;52.336;21.182;2023-05-02T07:31:33;0.10;;;0.10;;
17065;SDS011;23120;52.336;21.182;2023-05-02T07:34:00;0.10;;;0.10;;
17065;SDS011;23120;52.336;21.182;2023-05-02T07:36:27;0.20;;;0.20;;
17065;SDS011;23120;52.336;21.182;2023-05-02T07:38:55;0.10;;;0.10;;
17065;SDS011;23120;52.336;21.182;2023-05-02T07:41:22;0.10;;;0.10;;
17065;SDS011;23120;52.336;21.182;2023-05-02T07:43:49;0.10;;;0.10;;
17065;SDS011;23120;52.336;21.182;2023-05-02T07:46:15;0.10;;;0.10;;
17065;SDS011;23120;52.336;21.182;2023-05-02T07:48:42;0.10;;;0.10;;
17065;SDS011;23120;52.336;21.182;2023-05-02T07:51:09;0.10;;;0.10;;
17065;SDS011;23120;52.336;21.182;2023-05-02T07:53:36;0.20;;;0.20;;
17065;SDS011;23120;52.336;21.182;2023-05-02T07:56:05;0.20;;;0.20;;
17065;SDS011;23120;52.336;21.182;2023-05-02T07:58:33;0.10;;;0.10;;
17065;SDS011;23120;52.336;21.182;2023-05-02T08:01:00;0.20;;;0.20;;
17065;SDS011;23120;52.336;21.182;2023-05-02T08:03:28;0.20;;;0.20;;
17065;SDS011;23120;52.336;21.182;2023-05-02T08:05:55;0.10;;;0.10;;
17065;SDS011;23120;52.336;21.182;2023-05-02T08:08:22;0.10;;;0.10;;
17065;SDS011;23120;52.336;21.182;2023-05-02T08:10:49;0.20;;;0.20;;
17065;SDS011;23120;52.336;21.182;2023-05-02T08:13:17;0.10;;;0.10;;
17065;SDS011;23120;52.336;21.182;2023-05-02T08:15:44;0.10;;;0.10;;
17065;SDS011;23120;52.336;21.182;2023-05-02T08:18:11;0.10;;;0.10;;
17065;SDS011;23120;52.336;21.182;2023-05-02T08:20:37;0.10;;;0.10;;
17065;SDS011;23120;52.336;21.182;2023-05-02T08:23:04;0.10;;;0.10;;
17065;SDS011;23120;52.336;21.182;2023-05-02T08:25:31;0.10;;;0.10;;
17065;SDS011;23120;52.336;21.182;2023-05-02T08:27:58;0.20;;;0.20;;
17065;SDS011;23120;52.336;21.182;2023-05-02T08:30:26;0.10;;;0.10;;
17065;SDS011;23120;52.336;21.182;2023-05-02T08:32:53;0.10;;;0.10;;
17065;SDS011;23120;52.336;21.182;2023-05-02T08:35:20;0.10;;;0.10;;
17065;SDS011;23120;52.336;21.182;2023-05-02T08:37:46;0.10;;;0.10;;
17065;SDS011;23120;52.336;21.182;2023-05-02T08:40:13;0.10;;;0.10;;
17065;SDS011;23120;52.336;21.182;2023-05-02T08:42:42;0.00;;;0.00;;
17065;SDS011;23120;52.336;21.182;2023-05-02T08:45:10;0.10;;;0.10;;
17065;SDS011;23120;52.336;21.182;2023-05-02T08:47:40;0.10;;;0.10;;
17065;SDS011;23120;52.336;21.182;2023-05-02T08:50:08;0.10;;;0.10;;
17065;SDS011;23120;52.336;21.182;2023-05-02T08:52:36;0.10;;;0.10;;
17065;SDS011;23120;52.336;21.182;2023-05-02T08:55:03;0.00;;;0.00;;
17065;SDS011;23120;52.336;21.182;2023-05-02T08:57:31;0.10;;;0.10;;
17065;SDS011;23120;52.336;21.182;2023-05-02T08:59:58;0.10;;;0.10;;
17065;SDS011;23120;52.336;21.182;2023-05-02T09:02:29;0.10;;;0.10;;
17065;SDS011;23120;52.336;21.182;2023-05-02T09:05:10;0.10;;;0.10;;
17065;SDS011;23120;52.336;21.182;2023-05-02T09:07:43;0.10;;;0.10;;
17065;SDS011;23120;52.336;21.182;2023-05-02T09:10:11;0.10;;;0.10;;
17065;SDS011;23120;52.336;21.182;2023-05-02T09:12:38;0.10;;;0.10;;
17065;SDS011;23120;52.336;21.182;2023-05-02T09:15:08;0.10;;;0.10;;
17065;SDS011;23120;52.336;21.182;2023-05-02T09:17:41;0.10;;;0.10;;
17065;SDS011;23120;52.336;21.182;2023-05-02T09:20:09;0.10;;;0.10;;
17065;SDS011;23120;52.336;21.182;2023-05-02T09:22:36;0.08;;;0.08;;
17065;SDS011;23120;52.336;21.182;2023-05-02T09:25:04;0.10;;;0.10;;
17065;SDS011;23120;52.336;21.182;2023-05-02T09:30:18;0.10;;;0.10;;
17065;SDS011;23120;52.336;21.182;2023-05-02T09:32:47;0.10;;;0.10;;
17065;SDS011;23120;52.336;21.182;2023-05-02T09:35:16;0.10;;;0.10;;
17065;SDS011;23120;52.336;21.182;2023-05-02T09:37:51;0.10;;;0.10;;
17065;SDS011;23120;52.336;21.182;2023-05-02T09:40:18;0.10;;;0.10;;
17065;SDS011;23120;52.336;21.182;2023-05-02T09:42:45;0.10;;;0.10;;
17065;SDS011;23120;52.336;21.182;2023-05-02T09:45:19;0.10;;;0.10;;
17065;SDS011;23120;52.336;21.182;2023-05-02T09:47:48;0.00;;;0.00;;
17065;SDS011;23120;52.336;21.182;2023-05-02T09:50:31;0.10;;;0.10;;
17065;SDS011;23120;52.336;21.182;2023-05-02T09:53:00;0.15;;;0.15;;
17065;SDS011;23120;52.336;21.182;2023-05-02T09:55:27;0.10;;;0.10;;
17065;SDS011;23120;52.336;21.182;2023-05-02T09:57:54;0.10;;;0.10;;
17065;SDS011;23120;52.336;21.182;2023-05-02T10:00:21;0.10;;;0.10;;
17065;SDS011;23120;52.336;21.182;2023-05-02T10:02:50;0.10;;;0.10;;
17065;SDS011;23120;52.336;21.182;2023-05-02T10:05:17;0.10;;;0.10;;
17065;SDS011;23120;52.336;21.182;2023-05-02T10:07:45;0.10;;;0.10;;
17065;SDS011;23120;52.336;21.182;2023-05-02T10:10:13;0.10;;;0.10;;
17065;SDS011;23120;52.336;21.182;2023-05-02T10:12:43;0.10;;;0.10;;
17065;SDS011;23120;52.336;21.182;2023-05-02T10:15:13;0.10;;;0.10;;
17065;SDS011;23120;52.336;21.182;2023-05-02T10:17:43;0.10;;;0.10;;
17065;SDS011;23120;52.336;21.182;2023-05-02T10:20:17;0.10;;;0.10;;
17065;SDS011;23120;52.336;21.182;2023-05-02T10:22:50;0.10;;;0.10;;
17065;SDS011;23120;52.336;21.182;2023-05-02T10:25:19;0.10;;;0.10;;
17065;SDS011;23120;52.336;21.182;2023-05-02T10:27:46;0.10;;;0.10;;
17065;SDS011;23120;52.336;21.182;2023-05-02T10:30:14;0.10;;;0.10;;
17065;SDS011;23120;52.336;21.182;2023-05-02T10:32:42;0.10;;;0.10;;
17065;SDS011;23120;52.336;21.182;2023-05-02T10:35:09;0.10;;;0.10;;
17065;SDS011;23120;52.336;21.182;2023-05-02T10:37:38;0.10;;;0.10;;
17065;SDS011;23120;52.336;21.182;2023-05-02T10:40:08;0.10;;;0.10;;
17065;SDS011;23120;52.336;21.182;2023-05-02T10:42:36;0.10;;;0.10;;
17065;SDS011;23120;52.336;21.182;2023-05-02T10:45:04;0.10;;;0.10;;
17065;SDS011;23120;52.336;21.182;2023-05-02T10:47:35;0.10;;;0.10;;
17065;SDS011;23120;52.336;21.182;2023-05-02T10:50:02;0.10;;;0.10;;
17065;SDS011;23120;52.336;21.182;2023-05-02T10:52:31;0.10;;;0.10;;
17065;SDS011;23120;52.336;21.182;2023-05-02T11:00:47;0.10;;;0.10;;
17065;SDS011;23120;52.336;21.182;2023-05-02T11:03:14;0.10;;;0.10;;
17065;SDS011;23120;52.336;21.182;2023-05-02T11:06:23;0.10;;;0.10;;
17065;SDS011;23120;52.336;21.182;2023-05-02T11:09:46;0.10;;;0.10;;
17065;SDS011;23120;52.336;21.182;2023-05-02T11:21:27;0.10;;;0.10;;
17065;SDS011;23120;52.336;21.182;2023-05-02T11:30:03;0.10;;;0.10;;
17065;SDS011;23120;52.336;21.182;2023-05-02T11:35:36;0.10;;;0.10;;
17065;SDS011;23120;52.336;21.182;2023-05-02T11:38:09;0.10;;;0.10;;
17065;SDS011;23120;52.336;21.182;2023-05-02T11:40:37;0.10;;;0.10;;
17065;SDS011;23120;52.336;21.182;2023-05-02T11:43:11;0.10;;;0.10;;
17065;SDS011;23120;52.336;21.182;2023-05-02T11:45:39;0.17;;;0.17;;
17065;SDS011;23120;52.336;21.182;2023-05-02T11:48:06;0.10;;;0.10;;
17065;SDS011;23120;52.336;21.182;2023-05-02T11:50:40;0.20;;;0.20;;
17065;SDS011;23120;52.336;21.182;2023-05-02T11:53:10;0.10;;;0.10;;
17065;SDS011;23120;52.336;21.182;2023-05-02T11:55:43;0.20;;;0.20;;
17065;SDS011;23120;52.336;21.182;2023-05-02T11:58:14;0.10;;;0.10;;
17065;SDS011;23120;52.336;21.182;2023-05-02T12:00:42;0.20;;;0.20;;
17065;SDS011;23120;52.336;21.182;2023-05-02T12:03:18;0.20;;;0.20;;
17065;SDS011;23120;52.336;21.182;2023-05-02T12:05:49;0.20;;;0.20;;
17065;SDS011;23120;52.336;21.182;2023-05-02T12:08:18;0.20;;;0.20;;
17065;SDS011;23120;52.336;21.182;2023-05-02T12:10:47;0.20;;;0.20;;
17065;SDS011;23120;52.336;21.182;2023-05-02T12:13:15;0.20;;;0.20;;
17065;SDS011;23120;52.336;21.182;2023-05-02T12:15:42;0.10;;;0.10;;
17065;SDS011;23120;52.336;21.182;2023-05-02T12:18:11;0.20;;;0.20;;
17065;SDS011;23120;52.336;21.182;2023-05-02T12:20:38;0.20;;;0.20;;
17065;SDS011;23120;52.336;21.182;2023-05-02T12:23:05;0.10;;;0.10;;
17065;SDS011;23120;52.336;21.182;2023-05-02T12:25:38;0.10;;;0.10;;
17065;SDS011;23120;52.336;21.182;2023-05-02T12:28:09;0.10;;;0.10;;
17065;SDS011;23120;52.336;21.182;2023-05-02T12:30:36;0.20;;;0.20;;
17065;SDS011;23120;52.336;21.182;2023-05-02T12:33:04;0.10;;;0.10;;
17065;SDS011;23120;52.336;21.182;2023-05-02T12:35:32;0.20;;;0.20;;
17065;SDS011;23120;52.336;21.182;2023-05-02T12:38:06;0.20;;;0.20;;
17065;SDS011;23120;52.336;21.182;2023-05-02T12:40:44;0.17;;;0.17;;
17065;SDS011;23120;52.336;21.182;2023-05-02T12:43:13;0.20;;;0.20;;
17065;SDS011;23120;52.336;21.182;2023-05-02T12:45:39;0.10;;;0.10;;
17065;SDS011;23120;52.336;21.182;2023-05-02T12:50:58;0.20;;;0.20;;
17065;SDS011;23120;52.336;21.182;2023-05-02T12:53:38;0.10;;;0.10;;
17065;SDS011;23120;52.336;21.182;2023-05-02T12:56:07;0.10;;;0.10;;
17065;SDS011;23120;52.336;21.182;2023-05-02T12:58:39;0.10;;;0.10;;
17065;SDS011;23120;52.336;21.182;2023-05-02T13:01:07;0.10;;;0.10;;
17065;SDS011;23120;52.336;21.182;2023-05-02T13:03:34;0.10;;;0.10;;
17065;SDS011;23120;52.336;21.182;2023-05-02T13:06:01;0.10;;;0.10;;
17065;SDS011;23120;52.336;21.182;2023-05-02T13:08:28;0.10;;;0.10;;
17065;SDS011;23120;52.336;21.182;2023-05-02T13:10:54;0.10;;;0.10;;
17065;SDS011;23120;52.336;21.182;2023-05-02T13:13:23;0.20;;;0.20;;
17065;SDS011;23120;52.336;21.182;2023-05-02T13:15:50;0.10;;;0.10;;
17065;SDS011;23120;52.336;21.182;2023-05-02T13:18:17;0.10;;;0.10;;
17065;SDS011;23120;52.336;21.182;2023-05-02T13:20:43;0.17;;;0.17;;
17065;SDS011;23120;52.336;21.182;2023-05-02T13:23:10;0.10;;;0.10;;
17065;SDS011;23120;52.336;21.182;2023-05-02T13:25:37;0.10;;;0.10;;
17065;SDS011;23120;52.336;21.182;2023-05-02T13:28:04;0.10;;;0.10;;
17065;SDS011;23120;52.336;21.182;2023-05-02T13:30:33;0.17;;;0.17;;
17065;SDS011;23120;52.336;21.182;2023-05-02T13:33:00;0.10;;;0.10;;
17065;SDS011;23120;52.336;21.182;2023-05-02T13:35:26;0.10;;;0.10;;
17065;SDS011;23120;52.336;21.182;2023-05-02T13:37:53;0.03;;;0.03;;
17065;SDS011;23120;52.336;21.182;2023-05-02T13:40:20;0.10;;;0.10;;
17065;SDS011;23120;52.336;21.182;2023-05-02T13:42:47;0.10;;;0.10;;
17065;SDS011;23120;52.336;21.182;2023-05-02T13:45:14;0.10;;;0.10;;
17065;SDS011;23120;52.336;21.182;2023-05-02T13:47:43;0.10;;;0.10;;
17065;SDS011;23120;52.336;21.182;2023-05-02T13:50:10;0.10;;;0.10;;
17065;SDS011;23120;52.336;21.182;2023-05-02T13:52:37;0.00;;;0.00;;
17065;SDS011;23120;52.336;21.182;2023-05-02T13:55:04;0.10;;;0.10;;
17065;SDS011;23120;52.336;21.182;2023-05-02T13:57:32;0.10;;;0.10;;
17065;SDS011;23120;52.336;21.182;2023-05-02T13:59:59;0.10;;;0.10;;
17065;SDS011;23120;52.336;21.182;2023-05-02T14:02:25;0.10;;;0.10;;
17065;SDS011;23120;52.336;21.182;2023-05-02T14:04:54;0.10;;;0.10;;
17065;SDS011;23120;52.336;21.182;2023-05-02T14:07:21;0.10;;;0.10;;
17065;SDS011;23120;52.336;21.182;2023-05-02T14:09:47;0.10;;;0.10;;
17065;SDS011;23120;52.336;21.182;2023-05-02T14:12:14;0.10;;;0.10;;
17065;SDS011;23120;52.336;21.182;2023-05-02T14:14:41;0.10;;;0.10;;
17065;SDS011;23120;52.336;21.182;2023-05-02T14:17:08;0.10;;;0.10;;
17065;SDS011;23120;52.336;21.182;2023-05-02T14:19:35;0.10;;;0.10;;
17065;SDS011;23120;52.336;21.182;2023-05-02T14:22:03;0.10;;;0.10;;
17065;SDS011;23120;52.336;21.182;2023-05-02T14:24:31;0.10;;;0.10;;
17065;SDS011;23120;52.336;21.182;2023-05-02T14:26:58;0.10;;;0.10;;
17065;SDS011;23120;52.336;21.182;2023-05-02T14:29:25;0.00;;;0.00;;
17065;SDS011;23120;52.336;21.182;2023-05-02T14:31:52;0.10;;;0.10;;
17065;SDS011;23120;52.336;21.182;2023-05-02T14:34:19;0.10;;;0.10;;
17065;SDS011;23120;52.336;21.182;2023-05-02T14:36:46;0.10;;;0.10;;
17065;SDS011;23120;52.336;21.182;2023-05-02T14:39:14;0.10;;;0.10;;
17065;SDS011;23120;52.336;21.182;2023-05-02T14:41:41;0.10;;;0.10;;
17065;SDS011;23120;52.336;21.182;2023-05-02T14:44:07;0.10;;;0.10;;
17065;SDS011;23120;52.336;21.182;2023-05-02T14:46:34;0.10;;;0.10;;
17065;SDS011;23120;52.336;21.182;2023-05-02T14:49:01;0.10;;;0.10;;
17065;SDS011;23120;52.336;21.182;2023-05-02T14:51:28;0.10;;;0.10;;
17065;SDS011;23120;52.336;21.182;2023-05-02T14:53:56;0.10;;;0.10;;
17065;SDS011;23120;52.336;21.182;2023-05-02T14:56:24;0.10;;;0.10;;
17065;SDS011;23120;52.336;21.182;2023-05-02T14:58:51;0.13;;;0.13;;
17065;SDS011;23120;52.336;21.182;2023-05-02T15:01:18;0.10;;;0.10;;
17065;SDS011;23120;52.336;21.182;2023-05-02T15:03:46;0.10;;;0.10;;
17065;SDS011;23120;52.336;21.182;2023-05-02T15:06:15;0.10;;;0.10;;
17065;SDS011;23120;52.336;21.182;2023-05-02T15:08:41;0.10;;;0.10;;
17065;SDS011;23120;52.336;21.182;2023-05-02T15:11:09;0.10;;;0.10;;
17065;SDS011;23120;52.336;21.182;2023-05-02T15:13:38;0.10;;;0.10;;